Time;durP1;ratioP1;P1;durP2;ratioP2;P2;SDS_P1;SDS_P2;PMS_P1;PMS_P2;Temp;Humidity;BMP_temperature;BMP_pressure;BME280_temperature;BME280_humidity;BME280_pressure;Samples;Min_cycle;Max_cycle;Signal;HPM_P1;HPM_P2
2023/09/30 00:02:05;;;;;;;;;;;16.70;99.90;;;;;;5008545;28;19917;-65
2023/09/30 00:04:31;;;;;;;;;;;16.70;99.90;;;;;;5003057;28;20366;-65
2023/09/30 00:06:56;;;;;;;;;;;16.70;99.90;;;;;;5016371;28;19985;-65
2023/09/30 00:09:22;;;;;;;;;;;16.70;99.90;;;;;;5004652;28;19914;-65
2023/09/30 00:11:47;;;;;;;;;;;16.70;99.90;;;;;;5011148;28;20380;-65
2023/09/30 00:14:13;;;;;;;;;;;16.70;99.90;;;;;;5012591;28;19917;-65
2023/09/30 00:16:38;;;;;;;;;;;16.80;99.90;;;;;;5013222;28;19917;-64
2023/09/30 00:19:04;;;;;;;;;;;16.70;99.90;;;;;;5006020;28;20036;-65
2023/09/30 00:21:29;;;;;;;;;;;16.70;99.90;;;;;;5010625;28;19959;-65
2023/09/30 00:23:55;;;;;;;;;;;16.70;99.90;;;;;;5006988;28;19920;-65
2023/09/30 00:26:21;;;;;;;;;;;16.70;99.90;;;;;;5011841;28;19976;-65
2023/09/30 00:28:47;;;;;;;;;;;16.70;99.90;;;;;;5013694;28;19917;-65
2023/09/30 00:31:13;;;;;;;;;;;16.70;99.90;;;;;;5012510;28;19920;-65
2023/09/30 00:33:38;;;;;;;;;;;16.70;99.90;;;;;;5016013;28;19921;-65
2023/09/30 00:36:10;;;;;;;;;;;16.70;99.90;;;;;;5009431;28;19913;-65
2023/09/30 00:38:36;;;;;;;;;;;16.70;99.90;;;;;;5015167;28;19996;-65
2023/09/30 00:41:02;;;;;;;;;;;16.60;99.90;;;;;;4996917;28;20396;-65
2023/09/30 00:43:28;;;;;;;;;;;16.60;99.90;;;;;;4994367;28;19917;-65
2023/09/30 00:46:01;;;;;;;;;;;16.60;99.90;;;;;;5010590;28;20564;-65
2023/09/30 00:48:27;;;;;;;;;;;16.70;99.90;;;;;;5018918;28;20314;-64
2023/09/30 00:50:52;;;;;;;;;;;16.70;99.90;;;;;;5014291;28;19909;-65
2023/09/30 00:53:18;;;;;;;;;;;16.80;99.90;;;;;;5017317;28;20424;-65
2023/09/30 00:55:44;;;;;;;;;;;16.80;99.90;;;;;;5011795;28;19956;-65
2023/09/30 00:58:09;;;;;;;;;;;16.80;99.90;;;;;;5018943;28;19995;-65
2023/09/30 01:00:35;;;;;;;;;;;16.80;99.90;;;;;;5017797;28;19913;-64
2023/09/30 01:03:03;;;;;;;;;;;16.80;99.90;;;;;;5018367;28;20507;-65
2023/09/30 01:05:30;;;;;;;;;;;16.90;99.90;;;;;;5016706;28;19913;-65
2023/09/30 01:07:55;;;;;;;;;;;17.00;99.90;;;;;;5014867;28;19909;-65
2023/09/30 01:10:21;;;;;;;;;;;17.20;99.90;;;;;;5019750;28;19936;-65
2023/09/30 01:12:46;;;;;;;;;;;17.50;99.90;;;;;;5015184;28;20317;-65
2023/09/30 01:15:12;;;;;;;;;;;17.90;99.90;;;;;;5016107;28;19964;-65
2023/09/30 01:17:37;;;;;;;;;;;18.30;99.90;;;;;;4993631;28;19913;-65
2023/09/30 01:20:08;;;;;;;;;;;18.70;99.90;;;;;;5018183;28;20360;-65
2023/09/30 01:22:34;;;;;;;;;;;19.00;99.90;;;;;;5009771;28;20092;-65
2023/09/30 01:24:59;;;;;;;;;;;19.30;99.90;;;;;;5017368;28;19934;-65
2023/09/30 01:27:25;;;;;;;;;;;19.50;99.90;;;;;;5017303;28;19909;-65
2023/09/30 01:29:51;;;;;;;;;;;19.60;99.90;;;;;;5015327;28;19920;-64
2023/09/30 01:32:16;;;;;;;;;;;19.80;99.90;;;;;;5017010;28;19932;-65
2023/09/30 01:34:42;;;;;;;;;;;20.00;99.90;;;;;;5016292;28;19917;-64
2023/09/30 01:37:07;;;;;;;;;;;20.10;99.90;;;;;;5019468;28;20522;-64
2023/09/30 01:39:33;;;;;;;;;;;20.20;99.90;;;;;;4997167;28;19987;-65
2023/09/30 01:41:59;;;;;;;;;;;20.30;99.90;;;;;;5011333;28;19945;-65
2023/09/30 01:44:25;;;;;;;;;;;20.40;99.90;;;;;;5014607;28;19921;-65
2023/09/30 01:46:51;;;;;;;;;;;20.40;99.90;;;;;;5016553;28;19913;-65
2023/09/30 01:49:18;;;;;;;;;;;20.50;99.90;;;;;;5017526;28;19970;-65
2023/09/30 01:51:44;;;;;;;;;;;20.50;99.90;;;;;;5015640;28;19928;-66
2023/09/30 01:54:10;;;;;;;;;;;20.60;99.90;;;;;;4999168;28;21274;-65
2023/09/30 01:56:36;;;;;;;;;;;20.70;99.90;;;;;;5011340;28;19909;-65
2023/09/30 01:59:01;;;;;;;;;;;20.70;99.90;;;;;;5014551;28;19929;-65
2023/09/30 02:01:27;;;;;;;;;;;20.70;99.90;;;;;;5012023;28;19913;-65
2023/09/30 02:03:53;;;;;;;;;;;20.70;99.90;;;;;;5008120;28;19961;-65
2023/09/30 02:06:20;;;;;;;;;;;20.70;99.90;;;;;;5017441;28;20471;-66
2023/09/30 02:08:46;;;;;;;;;;;20.70;99.90;;;;;;5016413;28;19913;-65
2023/09/30 02:11:13;;;;;;;;;;;20.70;99.90;;;;;;5008336;28;19917;-65
2023/09/30 02:13:39;;;;;;;;;;;20.60;99.90;;;;;;5010831;28;19924;-65
2023/09/30 02:16:05;;;;;;;;;;;20.60;99.90;;;;;;5013709;28;20291;-65
2023/09/30 02:18:33;;;;;;;;;;;20.60;99.90;;;;;;5012362;28;19912;-65
2023/09/30 02:20:59;;;;;;;;;;;20.70;99.90;;;;;;5015820;28;20552;-65
2023/09/30 02:23:25;;;;;;;;;;;20.70;99.90;;;;;;5016635;28;19909;-65
2023/09/30 02:25:50;;;;;;;;;;;20.80;99.90;;;;;;5013360;28;19909;-65
2023/09/30 02:28:16;;;;;;;;;;;20.80;99.90;;;;;;5010193;28;19913;-65
2023/09/30 02:30:41;;;;;;;;;;;20.80;99.90;;;;;;5012600;28;20271;-65
2023/09/30 02:33:07;;;;;;;;;;;20.80;99.90;;;;;;5013884;28;19917;-65
2023/09/30 02:35:33;;;;;;;;;;;20.80;99.90;;;;;;5011530;28;19912;-65
2023/09/30 02:37:58;;;;;;;;;;;20.80;99.90;;;;;;5012783;28;19928;-65
2023/09/30 02:40:25;;;;;;;;;;;20.80;99.90;;;;;;5008607;28;19913;-65
2023/09/30 02:42:51;;;;;;;;;;;20.80;99.90;;;;;;5013634;28;19909;-65
2023/09/30 02:45:17;;;;;;;;;;;20.80;99.90;;;;;;5002212;28;20376;-65
2023/09/30 02:47:43;;;;;;;;;;;20.80;99.90;;;;;;5014016;28;19988;-64
2023/09/30 02:50:11;;;;;;;;;;;20.70;99.90;;;;;;5012816;28;20191;-65
2023/09/30 02:52:36;;;;;;;;;;;20.70;99.90;;;;;;5012652;28;19959;-65
2023/09/30 02:55:02;;;;;;;;;;;20.70;99.90;;;;;;5013939;28;19940;-65
2023/09/30 02:57:28;;;;;;;;;;;20.70;99.90;;;;;;5014730;28;19948;-65
2023/09/30 02:59:56;;;;;;;;;;;20.70;99.90;;;;;;5009547;28;19956;-65
2023/09/30 03:02:22;;;;;;;;;;;20.70;99.90;;;;;;5013747;28;19989;-65
2023/09/30 03:04:50;;;;;;;;;;;20.60;99.90;;;;;;5017740;28;20008;-65
2023/09/30 03:07:15;;;;;;;;;;;20.60;99.90;;;;;;5017854;28;19917;-65
2023/09/30 03:09:42;;;;;;;;;;;20.60;99.90;;;;;;5013951;28;19975;-65
2023/09/30 03:12:08;;;;;;;;;;;20.60;99.90;;;;;;5013862;28;20314;-65
2023/09/30 03:14:34;;;;;;;;;;;20.60;99.90;;;;;;5010384;28;20135;-65
2023/09/30 03:17:00;;;;;;;;;;;20.60;99.90;;;;;;5013229;28;20476;-65
2023/09/30 03:19:25;;;;;;;;;;;20.60;99.90;;;;;;5014604;28;19964;-64
2023/09/30 03:21:51;;;;;;;;;;;20.60;99.90;;;;;;5013090;28;20184;-65
2023/09/30 03:24:16;;;;;;;;;;;20.60;99.90;;;;;;5010867;28;19917;-65
2023/09/30 03:26:43;;;;;;;;;;;20.50;99.90;;;;;;5013088;28;19959;-65
2023/09/30 03:29:09;;;;;;;;;;;20.60;99.90;;;;;;5013642;28;20634;-65
2023/09/30 03:31:35;;;;;;;;;;;20.60;99.90;;;;;;5014805;28;19913;-64
2023/09/30 03:34:02;;;;;;;;;;;20.60;99.90;;;;;;5009888;28;19975;-65
2023/09/30 03:36:28;;;;;;;;;;;20.60;99.90;;;;;;5015547;28;19909;-65
2023/09/30 03:38:59;;;;;;;;;;;20.60;99.90;;;;;;5014242;28;19971;-65
2023/09/30 03:41:24;;;;;;;;;;;20.60;99.90;;;;;;5007886;28;19913;-65
2023/09/30 03:43:50;;;;;;;;;;;20.70;99.90;;;;;;5013330;28;20145;-64
2023/09/30 03:46:16;;;;;;;;;;;20.70;99.90;;;;;;5009064;28;19923;-65
2023/09/30 03:48:43;;;;;;;;;;;20.70;99.90;;;;;;5014743;28;20487;-65
2023/09/30 03:51:14;;;;;;;;;;;20.70;99.90;;;;;;4996856;28;20751;-64
2023/09/30 03:53:40;;;;;;;;;;;20.70;99.90;;;;;;4995245;28;20416;-65
2023/09/30 03:56:06;;;;;;;;;;;20.70;99.90;;;;;;5011047;28;19917;-71
2023/09/30 03:58:32;;;;;;;;;;;20.60;99.90;;;;;;5010605;28;19917;-68
2023/09/30 04:00:58;;;;;;;;;;;20.50;99.90;;;;;;5016532;28;19916;-68
2023/09/30 04:03:23;;;;;;;;;;;20.30;99.90;;;;;;5012081;28;19963;-69
2023/09/30 04:05:50;;;;;;;;;;;20.20;99.90;;;;;;5015339;28;19929;-70
2023/09/30 04:08:17;;;;;;;;;;;20.10;99.90;;;;;;5013002;28;20407;-68
2023/09/30 04:10:43;;;;;;;;;;;20.00;99.90;;;;;;5016807;28;20292;-67
2023/09/30 04:13:11;;;;;;;;;;;20.00;99.90;;;;;;5012146;28;19921;-69
2023/09/30 04:15:37;;;;;;;;;;;19.90;99.90;;;;;;5010040;28;20020;-68
2023/09/30 04:18:05;;;;;;;;;;;19.80;99.90;;;;;;5013835;28;19909;-68
2023/09/30 04:20:31;;;;;;;;;;;19.80;99.90;;;;;;5013544;28;19991;-68
2023/09/30 04:22:57;;;;;;;;;;;19.80;99.90;;;;;;5018728;28;19929;-68
2023/09/30 04:25:24;;;;;;;;;;;19.70;99.90;;;;;;5012340;28;19917;-68
2023/09/30 04:27:50;;;;;;;;;;;19.70;99.90;;;;;;5024272;28;19956;-69
2023/09/30 04:30:16;;;;;;;;;;;19.70;99.90;;;;;;5016234;28;19948;-69
2023/09/30 04:32:42;;;;;;;;;;;19.70;99.90;;;;;;5019437;28;20443;-70
2023/09/30 04:35:08;;;;;;;;;;;19.60;99.90;;;;;;5018177;28;19985;-71
2023/09/30 04:37:34;;;;;;;;;;;19.60;99.90;;;;;;5020134;28;20402;-69
2023/09/30 04:39:59;;;;;;;;;;;19.60;99.90;;;;;;5012990;28;19913;-69
2023/09/30 04:42:25;;;;;;;;;;;19.60;99.90;;;;;;5018255;28;20327;-68
2023/09/30 04:44:55;;;;;;;;;;;19.60;99.90;;;;;;5011660;28;20529;-68
2023/09/30 04:47:21;;;;;;;;;;;19.50;99.90;;;;;;5016769;28;19928;-68
2023/09/30 04:49:47;;;;;;;;;;;19.50;99.90;;;;;;5014644;28;19956;-68
2023/09/30 04:52:12;;;;;;;;;;;19.50;99.90;;;;;;5017580;28;20067;-68
2023/09/30 04:54:38;;;;;;;;;;;19.40;99.90;;;;;;4999248;28;19921;-68
2023/09/30 04:57:03;;;;;;;;;;;19.40;99.90;;;;;;5017436;28;20185;-68
2023/09/30 04:59:29;;;;;;;;;;;19.40;99.90;;;;;;5016211;28;19917;-68
2023/09/30 05:01:56;;;;;;;;;;;19.40;99.90;;;;;;5018387;28;19953;-67
2023/09/30 05:04:23;;;;;;;;;;;19.40;99.90;;;;;;5004013;28;19921;-68
2023/09/30 05:06:49;;;;;;;;;;;19.40;99.90;;;;;;5023547;28;19913;-67
2023/09/30 05:09:15;;;;;;;;;;;19.30;99.90;;;;;;5015691;28;19940;-67
2023/09/30 05:11:40;;;;;;;;;;;19.40;99.90;;;;;;4997862;28;20010;-68
2023/09/30 05:14:06;;;;;;;;;;;19.30;99.90;;;;;;5015720;28;19925;-68
2023/09/30 05:16:31;;;;;;;;;;;19.30;99.90;;;;;;5016440;28;19924;-68
2023/09/30 05:18:57;;;;;;;;;;;19.40;99.90;;;;;;4996438;28;20472;-68
2023/09/30 05:21:22;;;;;;;;;;;19.40;99.90;;;;;;4998281;28;20331;-68
2023/09/30 05:23:48;;;;;;;;;;;19.40;99.90;;;;;;5010918;28;19913;-68
2023/09/30 05:26:13;;;;;;;;;;;19.40;99.90;;;;;;5018053;28;19967;-68
2023/09/30 05:28:39;;;;;;;;;;;19.40;99.90;;;;;;5016854;28;20478;-70
2023/09/30 05:31:05;;;;;;;;;;;19.40;99.90;;;;;;5013015;28;19928;-66
2023/09/30 05:33:30;;;;;;;;;;;19.40;99.90;;;;;;5016714;28;20020;-65
2023/09/30 05:35:56;;;;;;;;;;;19.40;99.90;;;;;;5013554;28;19916;-66
2023/09/30 05:38:23;;;;;;;;;;;19.40;99.90;;;;;;5016072;28;19944;-65
2023/09/30 05:40:49;;;;;;;;;;;19.40;99.90;;;;;;5015204;28;19979;-66
2023/09/30 05:43:15;;;;;;;;;;;19.40;99.90;;;;;;5012896;28;20027;-66
2023/09/30 05:45:48;;;;;;;;;;;19.40;99.90;;;;;;5014277;28;20590;-68
2023/09/30 05:48:15;;;;;;;;;;;19.40;99.90;;;;;;5020574;28;19913;-68
2023/09/30 05:50:42;;;;;;;;;;;19.40;99.90;;;;;;5017197;28;19913;-68
2023/09/30 05:53:10;;;;;;;;;;;19.50;99.90;;;;;;5008060;28;19982;-68
2023/09/30 05:55:36;;;;;;;;;;;19.50;99.90;;;;;;5017600;28;19916;-68
2023/09/30 05:58:02;;;;;;;;;;;19.60;99.90;;;;;;5007003;28;19913;-68
2023/09/30 06:00:34;;;;;;;;;;;19.70;99.90;;;;;;5013031;28;19944;-68
2023/09/30 06:02:59;;;;;;;;;;;19.80;99.90;;;;;;5014505;28;19913;-70
2023/09/30 06:05:30;;;;;;;;;;;19.90;99.90;;;;;;5018521;28;19932;-69
2023/09/30 06:07:55;;;;;;;;;;;20.00;99.90;;;;;;5015438;28;19936;-67
2023/09/30 06:10:21;;;;;;;;;;;20.20;99.90;;;;;;5000029;28;20466;-67
2023/09/30 06:12:47;;;;;;;;;;;20.30;99.90;;;;;;5009884;28;20605;-68
2023/09/30 06:15:14;;;;;;;;;;;20.50;99.90;;;;;;4996929;28;20363;-66
2023/09/30 06:17:40;;;;;;;;;;;20.70;99.90;;;;;;4998142;28;19924;-66
2023/09/30 06:20:15;;;;;;;;;;;20.70;99.90;;;;;;5005173;28;19914;-67
2023/09/30 06:22:41;;;;;;;;;;;20.80;99.90;;;;;;5014945;28;19936;-68
2023/09/30 06:25:07;;;;;;;;;;;20.80;99.90;;;;;;5006700;28;20013;-68
2023/09/30 06:27:33;;;;;;;;;;;20.90;99.90;;;;;;5015269;28;20395;-69
2023/09/30 06:29:58;;;;;;;;;;;20.90;99.90;;;;;;5015563;28;19917;-67
2023/09/30 06:32:24;;;;;;;;;;;20.90;99.90;;;;;;5016611;28;20391;-67
2023/09/30 06:34:49;;;;;;;;;;;21.00;99.90;;;;;;5005273;28;19924;-68
2023/09/30 06:37:15;;;;;;;;;;;21.00;99.90;;;;;;5017118;28;19909;-67
2023/09/30 06:39:41;;;;;;;;;;;21.10;99.90;;;;;;5012045;28;19924;-69
2023/09/30 06:42:07;;;;;;;;;;;21.10;99.90;;;;;;5011601;28;19914;-69
2023/09/30 06:44:32;;;;;;;;;;;21.10;99.90;;;;;;5012833;28;19990;-69
2023/09/30 06:46:58;;;;;;;;;;;21.20;99.90;;;;;;5010315;28;19917;-69
2023/09/30 06:49:24;;;;;;;;;;;21.30;99.90;;;;;;5000312;28;19992;-70
2023/09/30 06:51:50;;;;;;;;;;;21.60;99.90;;;;;;5016232;28;19928;-69
2023/09/30 06:54:15;;;;;;;;;;;22.00;99.90;;;;;;5014173;28;19921;-70
2023/09/30 06:56:41;;;;;;;;;;;22.80;99.90;;;;;;5000975;28;20403;-70
2023/09/30 06:59:06;;;;;;;;;;;23.20;99.90;;;;;;5015254;28;19917;-69
2023/09/30 07:01:32;;;;;;;;;;;23.50;99.90;;;;;;5011923;28;20560;-70
2023/09/30 07:03:57;;;;;;;;;;;23.50;99.90;;;;;;5013487;28;20629;-70
2023/09/30 07:06:24;;;;;;;;;;;23.60;99.90;;;;;;5018537;28;20372;-68
2023/09/30 07:08:49;;;;;;;;;;;24.60;99.90;;;;;;5008978;28;19975;-70
2023/09/30 07:11:15;;;;;;;;;;;25.30;99.90;;;;;;5012712;28;19917;-70
2023/09/30 07:13:40;;;;;;;;;;;25.90;99.90;;;;;;5014394;28;20036;-70
2023/09/30 07:16:06;;;;;;;;;;;26.40;99.40;;;;;;5008607;28;20194;-68
2023/09/30 07:18:31;;;;;;;;;;;26.50;99.10;;;;;;5017939;28;20091;-68
2023/09/30 07:20:57;;;;;;;;;;;27.80;97.40;;;;;;5014561;28;20421;-72
2023/09/30 07:23:22;;;;;;;;;;;28.70;95.50;;;;;;5012082;28;19909;-70
2023/09/30 07:25:48;;;;;;;;;;;28.00;94.90;;;;;;5014311;28;19917;-71
2023/09/30 07:28:14;;;;;;;;;;;27.10;95.70;;;;;;5015654;28;20188;-70
2023/09/30 07:30:40;;;;;;;;;;;26.20;97.00;;;;;;5015497;28;20003;-70
2023/09/30 07:33:06;;;;;;;;;;;25.50;97.70;;;;;;5011920;28;19921;-69
2023/09/30 07:35:32;;;;;;;;;;;25.10;98.40;;;;;;5006941;28;19913;-69
2023/09/30 07:37:58;;;;;;;;;;;25.00;98.60;;;;;;5012616;28;19917;-68
2023/09/30 07:40:23;;;;;;;;;;;24.90;98.90;;;;;;5015901;28;20519;-71
2023/09/30 07:42:49;;;;;;;;;;;24.90;99.20;;;;;;5009962;28;19917;-70
2023/09/30 07:45:16;;;;;;;;;;;24.70;99.40;;;;;;5013506;28;19913;-70
2023/09/30 07:47:46;;;;;;;;;;;24.80;99.40;;;;;;5005756;28;20426;-69
2023/09/30 07:50:12;;;;;;;;;;;24.90;99.50;;;;;;5012184;28;19917;-70
2023/09/30 07:52:39;;;;;;;;;;;25.30;99.10;;;;;;4995994;28;21341;-70
2023/09/30 07:55:05;;;;;;;;;;;27.70;97.00;;;;;;4996669;28;20434;-62
2023/09/30 07:57:30;;;;;;;;;;;29.80;94.20;;;;;;5016366;28;19940;-63
2023/09/30 07:59:56;;;;;;;;;;;32.10;91.10;;;;;;5009999;28;19997;-62
2023/09/30 08:02:22;;;;;;;;;;;33.40;86.30;;;;;;5014289;28;19940;-62
2023/09/30 08:04:48;;;;;;;;;;;33.60;82.80;;;;;;5013781;28;19943;-63
2023/09/30 08:07:13;;;;;;;;;;;34.40;79.80;;;;;;5019013;28;19947;-62
2023/09/30 08:09:39;;;;;;;;;;;35.20;75.50;;;;;;5014628;28;20573;-62
2023/09/30 08:12:05;;;;;;;;;;;34.20;75.00;;;;;;5008375;28;20377;-62
2023/09/30 08:14:30;;;;;;;;;;;33.30;74.90;;;;;;5014453;28;19917;-62
2023/09/30 08:16:56;;;;;;;;;;;32.00;76.70;;;;;;5012990;28;19920;-63
2023/09/30 08:19:22;;;;;;;;;;;30.60;79.10;;;;;;5016884;28;20000;-62
2023/09/30 08:21:48;;;;;;;;;;;30.40;80.40;;;;;;5010340;28;19945;-63
2023/09/30 08:24:14;;;;;;;;;;;31.40;78.30;;;;;;5014952;28;19923;-63
2023/09/30 08:26:40;;;;;;;;;;;32.00;77.60;;;;;;5015293;28;21284;-63
2023/09/30 08:29:06;;;;;;;;;;;32.30;76.50;;;;;;5008198;28;19995;-63
2023/09/30 08:31:32;;;;;;;;;;;32.10;76.40;;;;;;5015137;28;19919;-62
2023/09/30 08:33:58;;;;;;;;;;;32.50;76.20;;;;;;5002283;28;20415;-62
2023/09/30 08:36:24;;;;;;;;;;;33.00;74.90;;;;;;5012764;28;19913;-63
2023/09/30 08:38:50;;;;;;;;;;;34.00;73.70;;;;;;5015454;28;19922;-63
2023/09/30 08:41:45;;;;;;;;;;;34.60;71.70;;;;;;5012389;28;21192;-63
2023/09/30 08:44:11;;;;;;;;;;;34.70;71.90;;;;;;4981562;28;20004;-63
2023/09/30 08:46:36;;;;;;;;;;;35.00;72.00;;;;;;5009332;28;20361;-63
2023/09/30 08:49:03;;;;;;;;;;;36.30;69.90;;;;;;5015121;28;20265;-62
2023/09/30 08:51:29;;;;;;;;;;;36.50;68.10;;;;;;5014004;28;19952;-62
2023/09/30 08:53:56;;;;;;;;;;;36.70;67.30;;;;;;5000388;28;19917;-62
2023/09/30 08:56:24;;;;;;;;;;;36.70;66.00;;;;;;4998550;28;19913;-62
2023/09/30 08:58:50;;;;;;;;;;;36.00;66.10;;;;;;4997914;28;19917;-62
2023/09/30 09:01:16;;;;;;;;;;;35.00;68.10;;;;;;5013059;28;20352;-62
2023/09/30 09:03:41;;;;;;;;;;;34.10;69.40;;;;;;5007395;28;20012;-62
2023/09/30 09:06:07;;;;;;;;;;;33.00;69.80;;;;;;5014463;28;19974;-62
2023/09/30 09:08:32;;;;;;;;;;;31.40;71.70;;;;;;5018774;28;20582;-62
2023/09/30 09:10:59;;;;;;;;;;;30.50;74.10;;;;;;5015059;28;20265;-62
2023/09/30 09:13:25;;;;;;;;;;;30.70;75.10;;;;;;4998843;28;20395;-61
2023/09/30 09:16:05;;;;;;;;;;;30.80;74.70;;;;;;5017391;28;19911;-62
2023/09/30 09:18:32;;;;;;;;;;;30.60;75.20;;;;;;5007434;28;20284;-63
2023/09/30 09:21:10;;;;;;;;;;;30.20;76.00;;;;;;5016450;28;20402;-65
2023/09/30 09:23:42;;;;;;;;;;;29.60;76.90;;;;;;5015116;28;19917;-65
2023/09/30 09:26:08;;;;;;;;;;;29.20;77.40;;;;;;5013376;28;19972;-63
2023/09/30 09:28:36;;;;;;;;;;;28.60;78.20;;;;;;5013972;28;19913;-63
2023/09/30 09:31:02;;;;;;;;;;;27.80;80.00;;;;;;5013237;28;20516;-61
2023/09/30 09:33:39;;;;;;;;;;;27.20;81.60;;;;;;5017568;28;19923;-62
2023/09/30 09:36:05;;;;;;;;;;;26.70;83.30;;;;;;5010429;28;20012;-63
2023/09/30 09:38:44;;;;;;;;;;;26.20;84.50;;;;;;5018022;28;20493;-62
2023/09/30 09:41:10;;;;;;;;;;;26.00;85.60;;;;;;5012599;28;19917;-62
2023/09/30 09:43:36;;;;;;;;;;;25.70;86.80;;;;;;5013711;28;19931;-61
2023/09/30 09:46:04;;;;;;;;;;;25.50;87.70;;;;;;5015395;28;20405;-71
2023/09/30 09:48:30;;;;;;;;;;;25.20;88.40;;;;;;5016199;28;19909;-62
2023/09/30 09:50:56;;;;;;;;;;;25.10;89.60;;;;;;5009970;28;19967;-62
2023/09/30 09:53:22;;;;;;;;;;;25.00;90.20;;;;;;5016565;28;19917;-62
2023/09/30 09:55:49;;;;;;;;;;;25.10;90.50;;;;;;5018414;28;19921;-62
2023/09/30 09:58:21;;;;;;;;;;;25.30;90.40;;;;;;5016700;28;20004;-61
2023/09/30 10:00:47;;;;;;;;;;;25.30;90.40;;;;;;5017086;28;19916;-61
2023/09/30 10:03:12;;;;;;;;;;;25.10;90.70;;;;;;5016304;28;19925;-62
2023/09/30 10:05:39;;;;;;;;;;;25.00;91.10;;;;;;5013280;28;19913;-61
2023/09/30 10:08:06;;;;;;;;;;;24.70;91.50;;;;;;5017861;28;19910;-61
2023/09/30 10:10:35;;;;;;;;;;;24.70;92.10;;;;;;5014846;28;20323;-61
2023/09/30 10:13:03;;;;;;;;;;;24.70;92.40;;;;;;5008519;28;20348;-61
2023/09/30 10:15:28;;;;;;;;;;;24.90;92.40;;;;;;5014598;28;19913;-62
2023/09/30 10:18:03;;;;;;;;;;;24.90;92.40;;;;;;5015719;28;19909;-62
2023/09/30 10:20:30;;;;;;;;;;;25.00;92.30;;;;;;5012454;28;20434;-62
2023/09/30 10:23:14;;;;;;;;;;;25.00;92.10;;;;;;4997234;28;19925;-61
2023/09/30 10:25:41;;;;;;;;;;;25.00;92.40;;;;;;5011695;28;20008;-67
2023/09/30 10:28:25;;;;;;;;;;;24.90;92.60;;;;;;5006486;28;19968;-72
2023/09/30 10:31:12;;;;;;;;;;;25.00;92.90;;;;;;5013785;28;19963;-62
2023/09/30 10:34:00;;;;;;;;;;;24.90;93.00;;;;;;5015398;28;19917;-62
2023/09/30 10:36:29;;;;;;;;;;;24.70;93.10;;;;;;5009822;28;19920;-62
2023/09/30 10:38:55;;;;;;;;;;;24.10;94.10;;;;;;5016447;28;19993;-62
2023/09/30 10:41:39;;;;;;;;;;;23.80;95.20;;;;;;5015755;28;20000;-63
2023/09/30 10:44:27;;;;;;;;;;;23.70;95.90;;;;;;5013885;28;19991;-62
2023/09/30 10:46:54;;;;;;;;;;;23.60;96.20;;;;;;5013732;28;19917;-62
2023/09/30 10:49:22;;;;;;;;;;;23.70;96.30;;;;;;5013779;28;19925;-62
2023/09/30 10:51:49;;;;;;;;;;;23.70;96.80;;;;;;5017036;28;19936;-62
2023/09/30 10:54:21;;;;;;;;;;;24.40;96.10;;;;;;5016798;28;20064;-62
2023/09/30 10:56:47;;;;;;;;;;;24.90;95.10;;;;;;5020598;28;20015;-61
2023/09/30 10:59:18;;;;;;;;;;;24.70;95.10;;;;;;5014979;28;20020;-61
2023/09/30 11:01:43;;;;;;;;;;;24.80;95.00;;;;;;5016284;28;20042;-62
2023/09/30 11:04:09;;;;;;;;;;;25.00;94.80;;;;;;5021408;28;20558;-62
2023/09/30 11:06:35;;;;;;;;;;;24.80;94.90;;;;;;5014985;28;19935;-64
2023/09/30 11:09:02;;;;;;;;;;;24.50;95.70;;;;;;5018433;28;19909;-62
2023/09/30 11:11:50;;;;;;;;;;;24.60;95.60;;;;;;5015397;28;19913;-62
2023/09/30 11:14:25;;;;;;;;;;;24.90;95.40;;;;;;4996803;28;19967;-62
2023/09/30 11:16:52;;;;;;;;;;;24.90;94.90;;;;;;5014679;28;20587;-63
2023/09/30 11:19:22;;;;;;;;;;;24.60;95.20;;;;;;4999508;28;20330;-62
2023/09/30 11:21:49;;;;;;;;;;;24.70;95.20;;;;;;5015752;28;19936;-63
2023/09/30 11:24:15;;;;;;;;;;;24.80;95.20;;;;;;5016305;28;20418;-63
2023/09/30 11:26:41;;;;;;;;;;;24.90;94.90;;;;;;5013115;28;19945;-62
2023/09/30 11:29:10;;;;;;;;;;;25.00;94.20;;;;;;5013341;28;19909;-62
2023/09/30 11:31:46;;;;;;;;;;;24.90;94.10;;;;;;5014079;28;19913;-62
2023/09/30 11:34:12;;;;;;;;;;;24.80;94.60;;;;;;4998748;28;19917;-62
2023/09/30 11:36:40;;;;;;;;;;;24.70;95.20;;;;;;5015362;28;19924;-62
2023/09/30 11:39:08;;;;;;;;;;;24.70;95.20;;;;;;5008645;28;19924;-63
2023/09/30 11:41:38;;;;;;;;;;;24.80;95.30;;;;;;5014926;28;19916;-63
2023/09/30 11:44:07;;;;;;;;;;;24.80;95.10;;;;;;5009388;28;20008;-63
2023/09/30 11:46:48;;;;;;;;;;;24.80;95.30;;;;;;5014743;28;19951;-62
2023/09/30 11:49:23;;;;;;;;;;;24.60;95.50;;;;;;5011273;28;19913;-62
2023/09/30 11:51:49;;;;;;;;;;;24.40;95.60;;;;;;5017929;28;19960;-61
2023/09/30 11:54:16;;;;;;;;;;;24.20;96.00;;;;;;5006630;28;21309;-62
2023/09/30 11:56:41;;;;;;;;;;;24.10;96.30;;;;;;5017159;28;19909;-62
2023/09/30 11:59:10;;;;;;;;;;;24.00;96.60;;;;;;5013539;28;19924;-62
2023/09/30 12:01:38;;;;;;;;;;;23.70;97.00;;;;;;5014357;28;19917;-70
2023/09/30 12:04:04;;;;;;;;;;;23.60;97.40;;;;;;5015886;28;20280;-71
2023/09/30 12:06:30;;;;;;;;;;;23.70;97.60;;;;;;5014320;28;19916;-70
2023/09/30 12:08:56;;;;;;;;;;;23.70;97.50;;;;;;4994202;28;20360;-70
2023/09/30 12:11:23;;;;;;;;;;;24.00;97.30;;;;;;5009944;28;19932;-70
2023/09/30 12:13:50;;;;;;;;;;;24.20;97.00;;;;;;5009941;28;19924;-64
2023/09/30 12:16:16;;;;;;;;;;;24.60;96.50;;;;;;4996696;28;19920;-64
2023/09/30 12:18:42;;;;;;;;;;;24.70;96.00;;;;;;5017075;28;19917;-65
2023/09/30 12:21:10;;;;;;;;;;;25.00;96.00;;;;;;4992241;28;19916;-63
2023/09/30 12:23:36;;;;;;;;;;;25.20;95.70;;;;;;5015801;28;20272;-64
2023/09/30 12:26:04;;;;;;;;;;;25.30;95.10;;;;;;5010521;28;19909;-65
2023/09/30 12:28:34;;;;;;;;;;;25.20;94.90;;;;;;5008748;28;19944;-66
2023/09/30 12:31:03;;;;;;;;;;;25.10;95.30;;;;;;4989895;28;19932;-63
2023/09/30 12:33:30;;;;;;;;;;;24.80;95.10;;;;;;4997458;28;19924;-63
2023/09/30 12:35:56;;;;;;;;;;;24.60;94.90;;;;;;5011200;28;19992;-66
2023/09/30 12:38:22;;;;;;;;;;;24.40;95.10;;;;;;5017932;28;19955;-66
2023/09/30 12:40:48;;;;;;;;;;;24.30;95.30;;;;;;5015590;28;19966;-63
2023/09/30 12:43:14;;;;;;;;;;;24.10;95.30;;;;;;5017767;28;19921;-65
2023/09/30 12:45:39;;;;;;;;;;;24.10;95.20;;;;;;5011059;28;20562;-63
2023/09/30 12:48:05;;;;;;;;;;;24.00;95.50;;;;;;5012826;28;19913;-64
2023/09/30 12:50:30;;;;;;;;;;;23.90;95.50;;;;;;5021414;28;19955;-65
2023/09/30 12:52:56;;;;;;;;;;;23.70;95.80;;;;;;5019167;28;19928;-66
2023/09/30 12:55:22;;;;;;;;;;;23.80;96.00;;;;;;5021260;28;20336;-66
2023/09/30 12:57:47;;;;;;;;;;;24.10;95.60;;;;;;5021348;28;19917;-64
2023/09/30 13:00:15;;;;;;;;;;;24.20;95.20;;;;;;5020578;28;19913;-64
2023/09/30 13:02:41;;;;;;;;;;;24.40;94.80;;;;;;5011238;28;20499;-64
2023/09/30 13:05:07;;;;;;;;;;;24.70;94.50;;;;;;5021406;28;19982;-64
2023/09/30 13:07:33;;;;;;;;;;;25.00;94.30;;;;;;5003342;28;19918;-63
2023/09/30 13:10:00;;;;;;;;;;;25.30;93.90;;;;;;5011670;28;19913;-64
2023/09/30 13:12:26;;;;;;;;;;;25.40;93.80;;;;;;4999222;28;19983;-67
2023/09/30 13:14:55;;;;;;;;;;;25.50;93.50;;;;;;5009874;28;20353;-67
2023/09/30 13:17:22;;;;;;;;;;;25.20;93.70;;;;;;5006634;28;19917;-66
2023/09/30 13:19:47;;;;;;;;;;;24.90;93.70;;;;;;5020968;28;19917;-67
2023/09/30 13:22:13;;;;;;;;;;;24.70;94.30;;;;;;5011239;28;19944;-67
2023/09/30 13:24:39;;;;;;;;;;;24.80;94.40;;;;;;5007691;28;20388;-65
2023/09/30 13:27:05;;;;;;;;;;;24.90;94.20;;;;;;5020032;28;19913;-65
2023/09/30 13:29:31;;;;;;;;;;;24.90;94.10;;;;;;5003331;28;19919;-66
2023/09/30 13:31:57;;;;;;;;;;;24.90;94.30;;;;;;5016337;28;19915;-66
2023/09/30 13:34:22;;;;;;;;;;;25.00;94.40;;;;;;5016928;28;19928;-65
2023/09/30 13:36:48;;;;;;;;;;;24.70;94.50;;;;;;5018517;28;20464;-67
2023/09/30 13:39:14;;;;;;;;;;;24.70;94.60;;;;;;5015349;28;20423;-64
2023/09/30 13:41:42;;;;;;;;;;;24.70;94.40;;;;;;5010133;28;19917;-67
2023/09/30 13:44:08;;;;;;;;;;;24.50;94.80;;;;;;5011933;28;21327;-66
2023/09/30 13:46:33;;;;;;;;;;;24.50;94.90;;;;;;5001434;28;19920;-65
2023/09/30 13:48:59;;;;;;;;;;;24.30;95.10;;;;;;5017862;28;20257;-65
2023/09/30 13:51:25;;;;;;;;;;;24.30;95.60;;;;;;5016582;28;19920;-65
2023/09/30 13:53:53;;;;;;;;;;;24.10;96.00;;;;;;5011384;28;19916;-67
2023/09/30 13:56:19;;;;;;;;;;;24.10;96.10;;;;;;5016899;28;19919;-65
2023/09/30 13:58:44;;;;;;;;;;;24.00;96.20;;;;;;5004649;28;21066;-65
2023/09/30 14:01:12;;;;;;;;;;;24.00;96.30;;;;;;5007319;28;20418;-64
2023/09/30 14:03:40;;;;;;;;;;;23.90;96.60;;;;;;5016733;28;19913;-64
2023/09/30 14:06:10;;;;;;;;;;;23.70;96.70;;;;;;5016790;28;19913;-64
2023/09/30 14:08:36;;;;;;;;;;;23.70;97.40;;;;;;5013241;28;19909;-64
2023/09/30 14:11:02;;;;;;;;;;;23.50;98.30;;;;;;4997421;28;19914;-64
2023/09/30 14:13:27;;;;;;;;;;;23.40;98.20;;;;;;5013762;28;19920;-65
2023/09/30 14:15:53;;;;;;;;;;;23.10;98.60;;;;;;5002375;28;20483;-65